Time;durP1;ratioP1;P1;durP2;ratioP2;P2;SDS_P1;SDS_P2;PMS_P1;PMS_P2;Temp;Humidity;BMP_temperature;BMP_pressure;BME280_temperature;BME280_humidity;BME280_pressure;Samples;Min_cycle;Max_cycle;Signal;HPM_P1;HPM_P2
2022/08/26 00:00:41;;;;;;;4.73;4.33;;;22.60;99.90;;;;;;5013154;28;20437;-70
2022/08/26 00:03:06;;;;;;;6.10;5.60;;;22.50;99.90;;;;;;5013444;28;20195;-69
2022/08/26 00:05:32;;;;;;;7.43;4.90;;;22.40;99.90;;;;;;5013225;28;20414;-69
2022/08/26 00:07:58;;;;;;;4.93;4.63;;;22.50;99.90;;;;;;5013678;28;20183;-70
2022/08/26 00:10:24;;;;;;;4.70;4.40;;;22.60;99.90;;;;;;5032525;28;20437;-69
2022/08/26 00:12:50;;;;;;;4.93;4.50;;;22.70;99.90;;;;;;5031047;28;20191;-69
2022/08/26 00:15:18;;;;;;;5.07;4.67;;;22.70;99.90;;;;;;5033097;28;20182;-69
2022/08/26 00:17:44;;;;;;;5.20;4.80;;;22.60;99.90;;;;;;5032949;28;20448;-69
2022/08/26 00:20:13;;;;;;;5.70;4.90;;;22.50;99.90;;;;;;5031426;28;20453;-68
2022/08/26 00:22:39;;;;;;;5.07;4.70;;;22.40;99.90;;;;;;5033153;28;20823;-69
2022/08/26 00:25:06;;;;;;;4.57;4.10;;;22.20;99.90;;;;;;5037088;28;20402;-68
2022/08/26 00:27:32;;;;;;;5.23;4.73;;;22.10;99.90;;;;;;5036289;28;20507;-69
2022/08/26 00:29:59;;;;;;;4.70;4.30;;;22.10;99.90;;;;;;5037053;28;20889;-69
2022/08/26 00:32:25;;;;;;;5.43;5.03;;;22.00;99.90;;;;;;5036947;28;20413;-69
2022/08/26 00:34:51;;;;;;;4.60;4.20;;;22.10;99.90;;;;;;5036392;28;20773;-69
2022/08/26 00:37:17;;;;;;;5.53;5.03;;;22.10;99.90;;;;;;5036522;28;20429;-68
2022/08/26 00:39:43;;;;;;;5.37;4.97;;;22.30;99.90;;;;;;5036104;28;20174;-70
2022/08/26 00:42:08;;;;;;;5.40;5.00;;;22.20;99.90;;;;;;5035729;28;20811;-69
2022/08/26 00:44:34;;;;;;;4.90;4.50;;;22.20;99.90;;;;;;5036924;28;20178;-69
2022/08/26 00:47:04;;;;;;;6.73;5.10;;;22.20;99.90;;;;;;5037027;28;20219;-69
2022/08/26 00:49:46;;;;;;;5.93;5.43;;;22.10;99.90;;;;;;5036659;28;20269;-69
2022/08/26 00:52:16;;;;;;;5.73;5.13;;;22.20;99.90;;;;;;5036765;28;20416;-69
2022/08/26 00:54:54;;;;;;;5.30;4.87;;;22.10;99.90;;;;;;5036502;28;20469;-69
2022/08/26 00:57:21;;;;;;;5.97;5.37;;;22.10;99.90;;;;;;5035986;28;20485;-68
2022/08/26 00:59:56;;;;;;;5.87;5.47;;;22.20;99.90;;;;;;5036184;28;20406;-67
2022/08/26 01:02:22;;;;;;;6.50;5.90;;;22.10;99.90;;;;;;5036349;28;20785;-69
2022/08/26 01:04:54;;;;;;;5.37;4.87;;;22.10;99.90;;;;;;5036399;28;20406;-69
2022/08/26 01:07:20;;;;;;;5.43;5.03;;;22.00;99.90;;;;;;5036005;28;20426;-68
2022/08/26 01:09:47;;;;;;;5.53;5.10;;;21.90;99.90;;;;;;5035937;28;20768;-69
2022/08/26 01:12:13;;;;;;;5.70;5.30;;;21.80;99.90;;;;;;5034643;28;20425;-69
2022/08/26 01:14:39;;;;;;;5.70;5.20;;;21.70;99.90;;;;;;5036123;28;20958;-69
2022/08/26 01:17:07;;;;;;;5.20;4.80;;;21.60;99.90;;;;;;5036097;28;20430;-69
2022/08/26 01:19:56;;;;;;;5.97;5.37;;;21.60;99.90;;;;;;5036015;28;20521;-68
2022/08/26 01:22:56;;;;;;;7.30;6.50;;;21.60;99.90;;;;;;5035795;28;20434;-68
2022/08/26 01:25:25;;;;;;;7.27;6.57;;;21.60;99.90;;;;;;5026060;28;20420;-69
2022/08/26 01:27:52;;;;;;;8.40;5.77;;;21.50;99.90;;;;;;5030510;28;20911;-69
2022/08/26 01:30:19;;;;;;;6.70;6.10;;;21.40;99.90;;;;;;5024520;28;20418;-69
2022/08/26 01:32:47;;;;;;;7.57;5.70;;;21.30;99.90;;;;;;5015797;28;20521;-69
2022/08/26 01:35:13;;;;;;;7.40;6.70;;;21.50;99.90;;;;;;5014999;28;20838;-69
2022/08/26 01:37:39;;;;;;;6.97;6.37;;;21.60;99.90;;;;;;5015631;28;20461;-69
2022/08/26 01:40:08;;;;;;;6.30;5.70;;;21.80;99.90;;;;;;5016215;28;20186;-69
2022/08/26 01:42:33;;;;;;;6.23;5.73;;;21.80;99.90;;;;;;5028456;28;20449;-68
2022/08/26 01:45:23;;;;;;;6.83;6.13;;;21.70;99.90;;;;;;5035344;28;20405;-69
2022/08/26 01:47:52;;;;;;;7.60;7.00;;;21.70;99.90;;;;;;5035593;28;20542;-69
2022/08/26 01:50:22;;;;;;;7.70;7.00;;;21.70;99.90;;;;;;5035598;28;20789;-69
2022/08/26 01:52:48;;;;;;;7.63;6.93;;;21.50;99.90;;;;;;5025854;28;20392;-69
2022/08/26 01:55:17;;;;;;;7.20;6.50;;;21.50;99.90;;;;;;5015199;28;20474;-69
2022/08/26 01:57:46;;;;;;;7.03;6.40;;;21.50;99.90;;;;;;5015224;28;20427;-69
2022/08/26 02:00:13;;;;;;;7.33;6.40;;;21.70;99.90;;;;;;5015203;28;20481;-69
2022/08/26 02:02:44;;;;;;;7.07;6.37;;;21.80;99.90;;;;;;5015349;28;20451;-68
2022/08/26 02:05:15;;;;;;;7.17;6.47;;;21.80;99.90;;;;;;5015458;28;20499;-69
2022/08/26 02:07:42;;;;;;;6.60;6.10;;;21.70;99.90;;;;;;5015397;28;20883;-69
2022/08/26 02:10:08;;;;;;;6.50;6.00;;;21.60;99.90;;;;;;5014972;28;20402;-68
2022/08/26 02:12:34;;;;;;;8.97;6.83;;;21.60;99.90;;;;;;5026318;28;20447;-69
2022/08/26 02:15:05;;;;;;;6.87;6.30;;;21.70;99.90;;;;;;5035182;28;20416;-68
2022/08/26 02:17:41;;;;;;;6.90;6.30;;;21.70;99.90;;;;;;5035374;28;20434;-69
2022/08/26 02:20:07;;;;;;;6.57;6.00;;;21.80;99.90;;;;;;5035027;28;20398;-69
2022/08/26 02:22:33;;;;;;;6.50;5.90;;;21.80;99.90;;;;;;5034711;28;20456;-69
2022/08/26 02:25:16;;;;;;;10.23;6.53;;;21.70;99.90;;;;;;5034575;28;20460;-69
2022/08/26 02:27:42;;;;;;;6.17;5.57;;;21.70;99.90;;;;;;5033149;28;20444;-69
2022/08/26 02:30:13;;;;;;;7.40;6.70;;;21.70;99.90;;;;;;5034715;28;20402;-68
2022/08/26 02:32:39;;;;;;;8.20;7.00;;;21.60;99.90;;;;;;5034517;28;20159;-69
2022/08/26 02:35:06;;;;;;;7.10;6.33;;;21.50;99.90;;;;;;5034382;28;20398;-69
2022/08/26 02:37:32;;;;;;;6.70;6.10;;;21.50;99.90;;;;;;5034984;28;20489;-68
2022/08/26 02:39:58;;;;;;;7.03;6.33;;;21.50;99.90;;;;;;5034819;28;20410;-69
2022/08/26 02:42:24;;;;;;;7.20;6.60;;;21.40;99.90;;;;;;5034463;28;20287;-69
2022/08/26 02:44:49;;;;;;;8.20;6.70;;;21.40;99.90;;;;;;5034643;28;20438;-69
2022/08/26 02:47:15;;;;;;;8.17;7.20;;;21.30;99.90;;;;;;5034115;28;20249;-69
2022/08/26 02:49:44;;;;;;;10.17;8.07;;;21.30;99.90;;;;;;5034302;28;20262;-69
2022/08/26 02:52:11;;;;;;;8.27;7.47;;;21.30;99.90;;;;;;5034466;28;20510;-69
2022/08/26 02:54:37;;;;;;;7.73;6.93;;;21.20;99.90;;;;;;5034241;28;20485;-68
2022/08/26 02:57:04;;;;;;;7.40;6.67;;;21.10;99.90;;;;;;5033610;28;20425;-69
2022/08/26 02:59:30;;;;;;;9.07;7.93;;;21.00;99.90;;;;;;5033946;28;20745;-69
2022/08/26 03:01:56;;;;;;;7.67;6.97;;;21.00;99.90;;;;;;5033780;28;20456;-69
2022/08/26 03:04:23;;;;;;;7.80;7.00;;;21.10;99.90;;;;;;5033792;28;20671;-69
2022/08/26 03:06:49;;;;;;;8.13;7.30;;;21.10;99.90;;;;;;5034103;28;20432;-69
2022/08/26 03:09:17;;;;;;;11.03;8.43;;;21.20;99.90;;;;;;5033940;28;20414;-69
2022/08/26 03:11:44;;;;;;;8.30;7.50;;;21.20;99.90;;;;;;5033108;28;20180;-69
2022/08/26 03:14:09;;;;;;;8.93;7.80;;;21.20;99.90;;;;;;5033233;28;20766;-69
2022/08/26 03:16:36;;;;;;;11.67;8.50;;;21.20;99.90;;;;;;5033597;28;20418;-69
2022/08/26 03:19:03;;;;;;;9.70;8.80;;;21.20;99.90;;;;;;5033864;28;20195;-69
2022/08/26 03:21:29;;;;;;;9.00;8.17;;;21.10;99.90;;;;;;5033136;28;20790;-69
2022/08/26 03:23:55;;;;;;;9.77;8.37;;;21.10;99.90;;;;;;5031998;28;20553;-69
2022/08/26 03:26:21;;;;;;;8.67;7.70;;;21.10;99.90;;;;;;5033783;28;20199;-69
2022/08/26 03:31:31;;;;;;;9.33;8.30;;;21.10;99.90;;;;;;5033639;28;20476;-69
2022/08/26 03:33:58;;;;;;;8.47;7.73;;;21.20;99.90;;;;;;5033229;28;20438;-69
2022/08/26 03:36:23;;;;;;;11.63;8.27;;;21.10;99.90;;;;;;5033483;28;20309;-69
2022/08/26 03:38:49;;;;;;;9.33;8.40;;;21.10;99.90;;;;;;5032710;28;20528;-69
2022/08/26 03:41:16;;;;;;;8.23;7.53;;;21.10;99.90;;;;;;5033435;28;20167;-69
2022/08/26 03:43:41;;;;;;;13.30;9.03;;;21.00;99.90;;;;;;5033377;28;20214;-69
2022/08/26 03:46:10;;;;;;;10.17;7.50;;;20.90;99.90;;;;;;5033054;28;20445;-68
2022/08/26 03:48:36;;;;;;;9.47;8.10;;;20.90;99.90;;;;;;5033339;28;20601;-69
2022/08/26 03:51:03;;;;;;;9.77;8.77;;;20.80;99.90;;;;;;5033293;28;20394;-69
2022/08/26 03:53:28;;;;;;;7.67;7.07;;;20.90;99.90;;;;;;5032750;28;20410;-69
2022/08/26 03:55:54;;;;;;;7.97;7.20;;;20.80;99.90;;;;;;5025165;28;20441;-70
2022/08/26 03:58:20;;;;;;;8.20;7.40;;;20.80;99.90;;;;;;5012823;28;20255;-69
2022/08/26 04:00:46;;;;;;;7.50;6.80;;;20.80;99.90;;;;;;5013459;28;20172;-69
2022/08/26 04:03:56;;;;;;;9.33;7.40;;;20.80;99.90;;;;;;5013066;28;20489;-69
2022/08/26 04:05:57;;;;;;;8.37;7.40;;;20.80;99.90;;;;;;5013372;28;20234;-69
2022/08/26 04:08:23;;;;;;;8.67;7.77;;;20.70;99.90;;;;;;5012968;28;20773;-69
2022/08/26 04:10:48;;;;;;;7.47;6.77;;;20.70;99.90;;;;;;5012643;28;20515;-70
2022/08/26 04:13:14;;;;;;;8.80;6.53;;;20.70;99.90;;;;;;5024013;28;20622;-69
2022/08/26 04:15:40;;;;;;;7.67;6.97;;;20.70;99.90;;;;;;5032874;28;20190;-69
2022/08/26 04:18:05;;;;;;;8.17;7.37;;;20.80;99.90;;;;;;5032963;28;20441;-69
2022/08/26 04:20:31;;;;;;;6.43;5.83;;;20.90;99.90;;;;;;5029325;28;20511;-69
2022/08/26 04:22:56;;;;;;;7.70;7.10;;;20.90;99.90;;;;;;5024021;28;20290;-69
2022/08/26 04:25:22;;;;;;;7.43;6.73;;;20.90;99.90;;;;;;5032591;28;20167;-69
2022/08/26 04:27:47;;;;;;;6.90;6.40;;;20.90;99.90;;;;;;5032239;28;20201;-68
2022/08/26 04:30:13;;;;;;;7.13;6.53;;;20.80;99.90;;;;;;5032767;28;20182;-70
2022/08/26 04:32:39;;;;;;;6.10;5.60;;;20.80;99.90;;;;;;5031248;28;20179;-69
2022/08/26 04:35:05;;;;;;;7.43;6.70;;;20.80;99.90;;;;;;5032881;28;20170;-69
2022/08/26 04:37:32;;;;;;;7.43;6.63;;;20.80;99.90;;;;;;5032589;28;20228;-69
2022/08/26 04:39:57;;;;;;;7.10;6.43;;;20.80;99.90;;;;;;5032795;28;20418;-69
2022/08/26 04:42:23;;;;;;;7.33;6.50;;;20.70;99.90;;;;;;5032793;28;20453;-70
2022/08/26 04:44:49;;;;;;;6.83;6.17;;;20.80;99.90;;;;;;5033444;28;20250;-70
2022/08/26 04:47:14;;;;;;;7.80;7.10;;;20.80;99.90;;;;;;5032612;28;20234;-70
2022/08/26 04:49:40;;;;;;;7.43;6.73;;;20.70;99.90;;;;;;5032807;28;20229;-70
2022/08/26 04:52:05;;;;;;;8.23;7.10;;;20.70;99.90;;;;;;5032708;28;20640;-69
2022/08/26 04:54:31;;;;;;;8.37;7.03;;;20.70;99.90;;;;;;5032618;28;20164;-69
2022/08/26 04:56:57;;;;;;;8.23;7.33;;;20.60;99.90;;;;;;5032668;28;20584;-69
2022/08/26 04:59:22;;;;;;;7.90;7.13;;;20.70;99.90;;;;;;5032357;28;20250;-69
2022/08/26 05:01:50;;;;;;;6.77;6.20;;;20.70;99.90;;;;;;5032312;28;20203;-69
2022/08/26 05:04:18;;;;;;;7.30;6.60;;;20.80;99.90;;;;;;5031898;28;20240;-69
2022/08/26 05:06:44;;;;;;;10.27;6.90;;;20.80;99.90;;;;;;5032503;28;20472;-70
2022/08/26 05:09:09;;;;;;;7.50;6.83;;;20.80;99.90;;;;;;5033532;28;20823;-70
2022/08/26 05:11:36;;;;;;;6.73;6.20;;;20.90;99.90;;;;;;5035896;28;20167;-69
2022/08/26 05:14:02;;;;;;;6.87;6.30;;;20.80;99.90;;;;;;5034414;28;20179;-70
2022/08/26 05:16:29;;;;;;;7.13;6.53;;;20.90;99.90;;;;;;5035764;28;20445;-69
2022/08/26 05:18:54;;;;;;;7.00;6.40;;;20.90;99.90;;;;;;5035861;28;20554;-68
2022/08/26 05:21:23;;;;;;;7.50;6.83;;;20.90;99.90;;;;;;5035545;28;20406;-69
2022/08/26 05:23:50;;;;;;;7.10;6.60;;;20.90;99.90;;;;;;5035425;28;20203;-68
2022/08/26 05:26:17;;;;;;;7.67;7.07;;;21.00;99.90;;;;;;5035896;28;20423;-69
2022/08/26 05:28:43;;;;;;;7.40;6.80;;;21.00;99.90;;;;;;5034882;28;20413;-69
2022/08/26 05:31:18;;;;;;;7.00;6.40;;;21.10;99.90;;;;;;5034377;28;20517;-69
2022/08/26 05:33:45;;;;;;;7.13;6.43;;;21.20;99.90;;;;;;5036002;28;20448;-69
2022/08/26 05:36:14;;;;;;;7.23;6.63;;;21.20;99.90;;;;;;5035465;28;20438;-69
2022/08/26 05:38:40;;;;;;;7.00;6.50;;;21.20;99.90;;;;;;5035387;28;20410;-70
2022/08/26 05:41:17;;;;;;;7.37;6.73;;;21.30;99.90;;;;;;5035395;28;20852;-69
2022/08/26 05:43:43;;;;;;;7.80;7.10;;;21.30;99.90;;;;;;5034844;28;20949;-69
2022/08/26 05:46:09;;;;;;;7.73;7.00;;;21.30;99.90;;;;;;5036550;28;20458;-69
2022/08/26 05:48:36;;;;;;;6.50;6.00;;;21.30;99.90;;;;;;5035977;28;20406;-69
2022/08/26 05:51:07;;;;;;;7.87;6.57;;;21.40;99.90;;;;;;5035079;28;20417;-69
2022/08/26 05:53:33;;;;;;;6.77;6.23;;;21.50;99.90;;;;;;5035005;28;20410;-69
2022/08/26 05:55:59;;;;;;;7.17;6.47;;;21.60;99.90;;;;;;5034970;28;20810;-69
2022/08/26 05:58:25;;;;;;;10.43;6.20;;;21.60;99.90;;;;;;5034614;28;20414;-69
2022/08/26 06:01:03;;;;;;;7.07;6.53;;;21.60;99.90;;;;;;5035300;28;20184;-69
2022/08/26 06:03:30;;;;;;;7.53;6.83;;;21.60;99.90;;;;;;5035235;28;20434;-69
2022/08/26 06:05:56;;;;;;;7.07;6.47;;;21.70;99.90;;;;;;5027911;28;20442;-69
2022/08/26 06:08:22;;;;;;;7.13;6.53;;;21.70;99.90;;;;;;5015213;28;20411;-69
2022/08/26 06:10:58;;;;;;;7.67;7.07;;;21.70;99.90;;;;;;5015039;28;20930;-69
2022/08/26 06:13:26;;;;;;;7.37;6.67;;;21.70;99.90;;;;;;5026098;28;20193;-69
2022/08/26 06:15:53;;;;;;;7.90;6.93;;;21.70;99.90;;;;;;5033520;28;20430;-69
2022/08/26 06:18:23;;;;;;;7.80;7.20;;;21.70;99.90;;;;;;5033845;28;20483;-69
2022/08/26 06:20:49;;;;;;;7.00;6.30;;;21.80;99.90;;;;;;5033927;28;20438;-69
2022/08/26 06:26:03;;;;;;;7.90;6.70;;;21.80;99.90;;;;;;5035001;28;20891;-69
2022/08/26 06:28:28;;;;;;;6.97;6.33;;;21.90;99.90;;;;;;5033917;28;20409;-68
2022/08/26 06:30:54;;;;;;;7.97;7.23;;;21.90;99.90;;;;;;5034602;28;20748;-69
2022/08/26 06:33:21;;;;;;;7.47;6.73;;;21.90;99.90;;;;;;5034405;28;20178;-69
2022/08/26 06:35:49;;;;;;;7.70;7.00;;;22.00;99.90;;;;;;5034858;28;20538;-69
2022/08/26 06:38:14;;;;;;;6.77;6.17;;;22.00;99.90;;;;;;5034579;28;20828;-69
2022/08/26 06:40:44;;;;;;;6.90;6.40;;;22.00;99.90;;;;;;5034491;28;20405;-69
2022/08/26 06:43:10;;;;;;;7.73;7.03;;;22.10;99.90;;;;;;5033875;28;20209;-69
2022/08/26 06:45:37;;;;;;;7.20;6.60;;;22.10;99.90;;;;;;5034145;28;20405;-69
2022/08/26 06:48:03;;;;;;;8.27;6.67;;;22.20;99.90;;;;;;5034550;28;20410;-69
2022/08/26 06:50:29;;;;;;;8.17;5.83;;;22.20;99.90;;;;;;5034452;28;20399;-70
2022/08/26 06:52:54;;;;;;;7.20;6.60;;;22.30;99.90;;;;;;5034298;28;20413;-69
2022/08/26 06:55:20;;;;;;;8.83;7.43;;;22.30;99.90;;;;;;5034300;28;20174;-69
2022/08/26 06:57:46;;;;;;;6.80;6.20;;;22.40;99.90;;;;;;5034022;28;20210;-69
2022/08/26 07:00:12;;;;;;;6.63;6.03;;;22.50;99.90;;;;;;5034402;28;20613;-69
2022/08/26 07:02:38;;;;;;;7.60;6.80;;;22.60;99.90;;;;;;5033969;28;20564;-69
2022/08/26 07:05:05;;;;;;;6.93;6.33;;;22.60;99.90;;;;;;5033953;28;20929;-69
2022/08/26 07:07:30;;;;;;;7.40;6.70;;;22.70;99.90;;;;;;5033642;28;20521;-69
2022/08/26 07:09:56;;;;;;;6.63;6.00;;;22.70;99.90;;;;;;5033921;28;20481;-70
2022/08/26 07:12:22;;;;;;;6.57;5.93;;;22.80;99.90;;;;;;5032835;28;20586;-71
2022/08/26 07:14:47;;;;;;;8.20;7.00;;;22.90;99.90;;;;;;5026025;28;20207;-69
2022/08/26 07:17:14;;;;;;;6.70;6.10;;;23.00;99.90;;;;;;5013936;28;20563;-69
2022/08/26 07:19:39;;;;;;;7.87;7.17;;;23.00;99.90;;;;;;5014342;28;20173;-70
2022/08/26 07:22:05;;;;;;;7.10;6.47;;;23.00;99.90;;;;;;5014029;28;20413;-70
2022/08/26 07:24:33;;;;;;;7.17;6.57;;;23.20;99.90;;;;;;5018035;28;20243;-69
2022/08/26 07:27:06;;;;;;;8.77;6.90;;;23.30;99.90;;;;;;5033198;28;20460;-69
2022/08/26 07:29:33;;;;;;;7.53;6.70;;;23.30;99.90;;;;;;5033440;28;20421;-69
2022/08/26 07:31:59;;;;;;;7.67;6.97;;;23.50;99.90;;;;;;5032594;28;20414;-71
2022/08/26 07:34:25;;;;;;;7.13;6.23;;;23.50;99.90;;;;;;5032051;28;20448;-69
2022/08/26 07:36:51;;;;;;;9.20;7.20;;;23.50;99.90;;;;;;5033407;28;20199;-69
2022/08/26 07:39:17;;;;;;;9.50;7.80;;;23.40;99.90;;;;;;5033371;28;20398;-69
2022/08/26 07:41:46;;;;;;;8.70;7.60;;;22.90;99.90;;;;;;5033183;28;20167;-69
2022/08/26 07:44:12;;;;;;;10.80;7.90;;;22.70;99.90;;;;;;5033029;28;20539;-69
2022/08/26 07:46:38;;;;;;;8.00;7.30;;;22.80;99.90;;;;;;5032813;28;20446;-69
2022/08/26 07:49:04;;;;;;;8.60;7.77;;;22.90;99.90;;;;;;5032667;28;20479;-69
2022/08/26 07:51:30;;;;;;;8.60;7.80;;;23.10;99.90;;;;;;5031601;28;20410;-69
2022/08/26 07:53:57;;;;;;;9.40;8.50;;;23.10;99.90;;;;;;5032967;28;20413;-69
2022/08/26 07:56:23;;;;;;;10.30;9.23;;;23.10;99.90;;;;;;5033177;28;20421;-69
2022/08/26 07:58:50;;;;;;;8.00;7.40;;;23.20;99.90;;;;;;5033656;28;20758;-69
2022/08/26 08:01:16;;;;;;;9.30;8.23;;;23.20;99.90;;;;;;5033191;28;20402;-69
2022/08/26 08:03:41;;;;;;;10.87;8.70;;;23.50;99.90;;;;;;5030179;28;20816;-69
2022/08/26 08:06:07;;;;;;;10.53;8.50;;;23.70;99.90;;;;;;5033181;28;20222;-69
2022/08/26 08:08:34;;;;;;;11.00;8.20;;;23.80;99.90;;;;;;5032817;28;20632;-69
2022/08/26 08:11:00;;;;;;;10.33;7.83;;;23.80;99.90;;;;;;5032919;28;20171;-69
2022/08/26 08:13:26;;;;;;;9.70;8.30;;;24.00;99.90;;;;;;5031149;28;20426;-69
2022/08/26 08:15:51;;;;;;;8.43;7.30;;;24.30;99.90;;;;;;5032711;28;20458;-70
2022/08/26 08:18:18;;;;;;;9.63;8.30;;;24.50;99.90;;;;;;5032832;28;20503;-69
2022/08/26 08:20:44;;;;;;;7.40;6.60;;;24.60;99.90;;;;;;5032652;28;20604;-69
2022/08/26 08:23:09;;;;;;;8.13;7.37;;;24.70;99.90;;;;;;5033045;28;20476;-69
2022/08/26 08:25:35;;;;;;;8.03;7.00;;;24.60;99.90;;;;;;5033019;28;20199;-69
2022/08/26 08:28:00;;;;;;;8.57;7.20;;;24.50;99.90;;;;;;5032140;28;20167;-69
2022/08/26 08:30:27;;;;;;;7.30;6.60;;;24.70;99.90;;;;;;5032658;28;20178;-69
2022/08/26 08:32:52;;;;;;;6.93;6.30;;;25.20;99.90;;;;;;5032739;28;20198;-69
2022/08/26 08:35:21;;;;;;;6.73;6.17;;;25.30;99.90;;;;;;5032748;28;20406;-69
2022/08/26 08:37:49;;;;;;;8.70;6.80;;;25.50;99.90;;;;;;5032506;28;20174;-70
2022/08/26 08:40:16;;;;;;;6.33;5.80;;;25.60;99.90;;;;;;5032838;28;20409;-69
2022/08/26 08:43:02;;;;;;;10.43;7.30;;;25.60;99.90;;;;;;5031832;28;20923;-67
2022/08/26 08:45:31;;;;;;;7.33;6.57;;;25.90;99.90;;;;;;5035701;28;20787;-67
2022/08/26 08:48:03;;;;;;;9.50;5.77;;;26.20;99.90;;;;;;5036608;28;20433;-68
2022/08/26 08:50:32;;;;;;;6.07;5.50;;;26.50;99.90;;;;;;5036276;28;20856;-69
2022/08/26 08:53:10;;;;;;;6.73;6.03;;;26.80;99.90;;;;;;5036230;28;20492;-68
2022/08/26 08:55:46;;;;;;;5.90;5.40;;;26.90;99.90;;;;;;5035985;28;20386;-68
2022/08/26 08:58:18;;;;;;;6.20;5.70;;;27.30;99.90;;;;;;5035793;28;20382;-67
2022/08/26 09:01:00;;;;;;;7.10;5.53;;;27.60;99.90;;;;;;5036115;28;20406;-68
2022/08/26 09:03:51;;;;;;;5.60;5.10;;;28.00;99.90;;;;;;5036114;28;20525;-68
2022/08/26 09:06:17;;;;;;;6.70;5.73;;;28.10;99.10;;;;;;5035796;28;20434;-69
2022/08/26 09:08:49;;;;;;;7.13;5.90;;;27.70;99.90;;;;;;5035725;28;20400;-68
2022/08/26 09:11:16;;;;;;;7.00;5.30;;;27.80;99.40;;;;;;5035751;28;20167;-69
2022/08/26 09:13:54;;;;;;;5.93;5.20;;;27.90;99.10;;;;;;5035255;28;20429;-69
2022/08/26 09:16:31;;;;;;;5.30;4.70;;;28.30;99.60;;;;;;5034104;28;20451;-69
2022/08/26 09:19:14;;;;;;;7.27;5.77;;;28.20;98.40;;;;;;5036042;28;20390;-69
2022/08/26 09:21:40;;;;;;;6.13;5.40;;;28.30;98.00;;;;;;5036013;28;20910;-69
2022/08/26 09:24:06;;;;;;;6.23;4.87;;;28.60;97.70;;;;;;5035874;28;20454;-69
2022/08/26 09:26:38;;;;;;;5.03;4.53;;;28.30;97.80;;;;;;5035490;28;20191;-68
2022/08/26 09:29:09;;;;;;;6.23;5.57;;;28.00;98.20;;;;;;5035617;28;20737;-68
2022/08/26 09:31:37;;;;;;;6.07;5.67;;;27.70;98.50;;;;;;5035397;28;20797;-69
2022/08/26 09:34:17;;;;;;;6.73;5.70;;;27.60;98.70;;;;;;5035436;28;20501;-69
2022/08/26 09:36:44;;;;;;;6.43;5.50;;;27.60;98.90;;;;;;5035557;28;20433;-69
2022/08/26 09:39:26;;;;;;;6.93;6.23;;;27.80;98.80;;;;;;5035478;28;20588;-69
2022/08/26 09:42:09;;;;;;;6.70;5.53;;;28.00;98.60;;;;;;5035724;28;20386;-69
2022/08/26 09:44:52;;;;;;;6.63;5.87;;;28.40;98.00;;;;;;5036037;28;20545;-69
2022/08/26 09:47:23;;;;;;;8.10;5.83;;;28.40;97.90;;;;;;5035109;28;20438;-69
2022/08/26 09:49:58;;;;;;;6.33;5.73;;;28.60;97.80;;;;;;5035475;28;20395;-69
2022/08/26 09:52:26;;;;;;;5.73;5.23;;;28.10;98.10;;;;;;5035552;28;20386;-69
2022/08/26 09:55:22;;;;;;;8.53;5.63;;;27.90;98.50;;;;;;5034783;28;20414;-69
2022/08/26 09:57:53;;;;;;;5.80;5.23;;;28.20;98.20;;;;;;5035401;28;20441;-69
2022/08/26 10:00:50;;;;;;;5.90;5.40;;;28.10;97.90;;;;;;5027180;28;20413;-69
2022/08/26 10:03:25;;;;;;;6.97;5.70;;;28.00;98.20;;;;;;5012177;28;20970;-68
2022/08/26 10:06:00;;;;;;;6.70;5.90;;;28.50;97.80;;;;;;5017085;28;20445;-69
2022/08/26 10:08:32;;;;;;;9.03;6.23;;;28.60;97.20;;;;;;5023964;28;20434;-69
2022/08/26 10:11:01;;;;;;;7.70;6.73;;;28.60;97.40;;;;;;5014921;28;20494;-69
2022/08/26 10:13:44;;;;;;;7.83;6.00;;;28.80;97.20;;;;;;5015226;28;20494;-69
2022/08/26 10:16:17;;;;;;;8.87;6.40;;;28.90;96.70;;;;;;5030139;28;20468;-68
2022/08/26 10:18:57;;;;;;;7.37;6.07;;;29.30;97.10;;;;;;5034677;28;20980;-68
2022/08/26 10:21:47;;;;;;;11.87;6.90;;;29.60;96.30;;;;;;5033377;28;20425;-69
2022/08/26 10:24:20;;;;;;;7.47;6.70;;;29.40;96.30;;;;;;5034635;28;20442;-69
2022/08/26 10:27:04;;;;;;;9.20;6.40;;;29.60;95.80;;;;;;5034654;28;20428;-69
2022/08/26 10:29:44;;;;;;;10.53;7.40;;;29.50;95.50;;;;;;5035346;28;20996;-69
2022/08/26 10:32:23;;;;;;;9.50;6.70;;;29.50;95.40;;;;;;5035082;28;20394;-69
2022/08/26 10:34:48;;;;;;;12.03;7.17;;;29.40;95.50;;;;;;5033599;28;20969;-69
2022/08/26 10:37:28;;;;;;;8.70;6.00;;;29.50;95.30;;;;;;5034433;28;20508;-69
2022/08/26 10:40:04;;;;;;;8.93;6.70;;;29.60;94.60;;;;;;5034610;28;20244;-69
2022/08/26 10:42:53;;;;;;;9.00;7.20;;;29.70;94.40;;;;;;5034866;28;20412;-69
2022/08/26 10:45:24;;;;;;;9.33;6.80;;;30.00;93.70;;;;;;5034316;28;20468;-69
2022/08/26 10:47:58;;;;;;;12.70;7.07;;;29.60;94.20;;;;;;5034386;28;20402;-69
2022/08/26 10:50:31;;;;;;;10.90;7.57;;;29.50;93.70;;;;;;5033599;28;20432;-69
2022/08/26 10:52:59;;;;;;;7.03;6.43;;;29.80;93.70;;;;;;5034025;28;20382;-69
2022/08/26 10:55:50;;;;;;;11.20;6.43;;;30.10;92.40;;;;;;5034169;28;20421;-70
2022/08/26 10:58:38;;;;;;;10.10;7.43;;;30.20;92.60;;;;;;5034252;28;20421;-69
2022/08/26 11:01:41;;;;;;;7.37;6.30;;;30.00;92.30;;;;;;5034397;28;20395;-69
2022/08/26 11:04:31;;;;;;;8.50;6.63;;;30.10;92.40;;;;;;5031226;28;20508;-68
2022/08/26 11:07:35;;;;;;;6.97;6.27;;;29.90;92.10;;;;;;5033702;28;20432;-69
2022/08/26 11:10:20;;;;;;;6.50;5.80;;;29.90;92.10;;;;;;5033892;28;20406;-69
2022/08/26 11:13:03;;;;;;;8.87;5.60;;;30.40;91.30;;;;;;5033825;28;20425;-69
2022/08/26 11:15:29;;;;;;;6.50;5.90;;;32.60;86.70;;;;;;5032032;28;20422;-69
2022/08/26 11:18:10;;;;;;;9.03;5.80;;;33.60;79.80;;;;;;5033529;28;20405;-69
2022/08/26 11:20:43;;;;;;;8.80;5.53;;;34.60;75.60;;;;;;5033518;28;20171;-70
2022/08/26 11:23:12;;;;;;;6.47;5.87;;;35.80;72.90;;;;;;5033397;28;20468;-70
2022/08/26 11:26:07;;;;;;;5.77;5.17;;;36.90;66.10;;;;;;5033633;28;20793;-69
2022/08/26 11:28:48;;;;;;;5.60;5.10;;;36.30;64.40;;;;;;5032586;28;20425;-71
2022/08/26 11:31:22;;;;;;;6.77;5.33;;;37.40;60.70;;;;;;5033226;28;20382;-69
2022/08/26 11:33:49;;;;;;;9.70;5.90;;;39.10;57.00;;;;;;5033807;28;20393;-69
2022/08/26 11:36:36;;;;;;;10.37;7.03;;;37.80;58.70;;;;;;5032021;28;20446;-69
2022/08/26 11:39:30;;;;;;;11.60;6.57;;;35.50;65.10;;;;;;5033049;28;20544;-70
2022/08/26 11:42:14;;;;;;;10.00;6.13;;;34.80;67.60;;;;;;5028317;28;20448;-69
2022/08/26 11:44:42;;;;;;;10.10;6.27;;;33.70;70.90;;;;;;5033606;28;22077;-69
2022/08/26 11:47:11;;;;;;;10.27;6.43;;;32.80;74.20;;;;;;5034542;28;20454;-69
2022/08/26 11:49:37;;;;;;;11.33;7.00;;;32.80;74.20;;;;;;5032899;28;20407;-69
2022/08/26 11:52:20;;;;;;;9.83;7.20;;;32.60;74.90;;;;;;5024339;28;20422;-69
2022/08/26 11:55:09;;;;;;;10.73;7.33;;;32.10;77.00;;;;;;5013258;28;20164;-69
2022/08/26 11:57:44;;;;;;;8.60;6.77;;;32.10;77.10;;;;;;5013544;28;20427;-69
2022/08/26 12:00:17;;;;;;;10.23;6.87;;;32.10;76.70;;;;;;5013411;28;20795;-69
2022/08/26 12:02:43;;;;;;;8.93;6.90;;;32.80;75.70;;;;;;5012911;28;20533;-69
2022/08/26 12:05:33;;;;;;;8.70;6.87;;;34.10;71.50;;;;;;5013513;28;20762;-69
2022/08/26 12:08:07;;;;;;;8.67;5.77;;;35.80;67.70;;;;;;5030997;28;20410;-69
2022/08/26 12:10:34;;;;;;;9.50;7.20;;;36.20;65.60;;;;;;5032630;28;20387;-69
2022/08/26 12:13:01;;;;;;;11.00;6.97;;;37.00;63.40;;;;;;5032589;28;20410;-70
2022/08/26 12:15:29;;;;;;;9.53;6.90;;;35.80;64.70;;;;;;5031580;28;20472;-69
2022/08/26 12:17:56;;;;;;;8.43;6.30;;;36.20;63.20;;;;;;5032286;28;20432;-69
2022/08/26 12:20:53;;;;;;;7.43;5.40;;;36.90;61.80;;;;;;5032269;28;20981;-69
2022/08/26 12:23:24;;;;;;;10.17;6.50;;;38.80;58.40;;;;;;5032961;28;20789;-69
2022/08/26 12:25:52;;;;;;;9.83;7.13;;;38.30;58.00;;;;;;5031323;28;20957;-69
2022/08/26 12:28:20;;;;;;;7.43;5.97;;;36.20;61.80;;;;;;5033186;28;20785;-70
2022/08/26 12:31:00;;;;;;;7.30;5.60;;;36.80;60.10;;;;;;5032290;28;20412;-70
2022/08/26 12:33:26;;;;;;;8.67;5.60;;;36.30;60.40;;;;;;5032372;28;20414;-69
2022/08/26 12:35:53;;;;;;;10.00;6.20;;;36.50;59.40;;;;;;5032752;28;20430;-70
2022/08/26 12:38:19;;;;;;;7.63;6.07;;;37.40;59.30;;;;;;5032562;28;20780;-70
2022/08/26 12:40:46;;;;;;;19.83;7.37;;;39.10;56.20;;;;;;5032531;28;20770;-69
2022/08/26 12:43:33;;;;;;;8.70;6.90;;;38.30;57.90;;;;;;5032282;28;20463;-70
2022/08/26 12:45:59;;;;;;;10.70;7.43;;;37.00;60.00;;;;;;5031974;28;20507;-69
2022/08/26 12:48:29;;;;;;;9.40;6.53;;;37.20;59.30;;;;;;5032345;28;20402;-70
2022/08/26 12:50:55;;;;;;;9.10;7.80;;;35.70;63.10;;;;;;5032521;28;20167;-70
2022/08/26 12:53:22;;;;;;;8.73;6.60;;;34.50;65.50;;;;;;5032350;28;20781;-70
2022/08/26 12:56:03;;;;;;;10.67;7.27;;;34.10;66.90;;;;;;5032294;28;20425;-70
2022/08/26 12:58:37;;;;;;;9.17;7.47;;;33.90;67.00;;;;;;5034270;28;20424;-71
2022/08/26 13:01:02;;;;;;;12.37;7.80;;;33.40;68.50;;;;;;5026633;28;20414;-70
2022/08/26 13:03:37;;;;;;;10.40;7.00;;;33.70;68.30;;;;;;5035312;28;20598;-70
2022/08/26 13:06:28;;;;;;;8.30;7.23;;;34.90;65.70;;;;;;5032997;28;20724;-70